Time;durP1;ratioP1;P1;durP2;ratioP2;P2;SDS_P1;SDS_P2;PMS_P1;PMS_P2;Temp;Humidity;BMP_temperature;BMP_pressure;BME280_temperature;BME280_humidity;BME280_pressure;Samples;Min_cycle;Max_cycle;Signal;HPM_P1;HPM_P2
2022/11/06 00:00:46;;;;;;;11.03;8.20;;;;;;;;;;4961849;28;20300;-64
2022/11/06 00:03:14;;;;;;;11.17;8.20;;;;;;;;;;4967471;28;20217;-62
2022/11/06 00:08:34;;;;;;;11.80;8.10;;;;;;;;;;4976589;28;20266;-63
2022/11/06 00:11:07;;;;;;;8.67;6.57;;;;;;;;;;4958699;28;20224;-63
2022/11/06 00:13:34;;;;;;;6.57;5.60;;;;;;;;;;4964943;28;20212;-63
2022/11/06 00:16:03;;;;;;;7.80;5.93;;;;;;;;;;4963608;28;20212;-62
2022/11/06 00:18:30;;;;;;;8.10;6.33;;;;;;;;;;4960304;28;20843;-63
2022/11/06 00:20:57;;;;;;;7.67;6.53;;;;;;;;;;4959957;28;20781;-64
2022/11/06 00:23:25;;;;;;;8.67;7.07;;;;;;;;;;4977831;28;20310;-63
2022/11/06 00:25:55;;;;;;;10.93;7.53;;;;;;;;;;4954938;28;20212;-62
2022/11/06 00:28:23;;;;;;;9.13;7.03;;;;;;;;;;4956388;28;20212;-64
2022/11/06 00:30:50;;;;;;;11.07;7.50;;;;;;;;;;4964693;28;20257;-63
2022/11/06 00:33:17;;;;;;;12.03;7.10;;;;;;;;;;4955623;28;20242;-64
2022/11/06 00:35:45;;;;;;;7.53;6.30;;;;;;;;;;4966382;28;20298;-62
2022/11/06 00:38:12;;;;;;;9.47;6.77;;;;;;;;;;4955580;28;23125;-63
2022/11/06 00:40:40;;;;;;;7.83;6.47;;;;;;;;;;4961315;28;20242;-62
2022/11/06 00:43:07;;;;;;;8.23;6.63;;;;;;;;;;4952574;28;20211;-62
2022/11/06 00:45:34;;;;;;;8.57;6.60;;;;;;;;;;4973177;28;20219;-63
2022/11/06 00:48:02;;;;;;;12.77;7.87;;;;;;;;;;4981330;28;20294;-62
2022/11/06 00:50:29;;;;;;;10.70;6.57;;;;;;;;;;4977546;28;20231;-60
2022/11/06 00:52:56;;;;;;;9.80;7.80;;;;;;;;;;4986929;28;20263;-61
2022/11/06 00:55:23;;;;;;;9.27;6.70;;;;;;;;;;4968132;28;20214;-63
2022/11/06 00:57:51;;;;;;;8.63;6.90;;;;;;;;;;4953967;28;20211;-64
2022/11/06 01:00:19;;;;;;;8.93;7.33;;;;;;;;;;4956267;28;20247;-61
2022/11/06 01:02:47;;;;;;;8.93;6.77;;;;;;;;;;4956328;28;20216;-63
2022/11/06 01:05:15;;;;;;;11.87;7.10;;;;;;;;;;4960451;28;20230;-64
2022/11/06 01:07:43;;;;;;;11.07;7.43;;;;;;;;;;4955216;28;20209;-62
2022/11/06 01:10:10;;;;;;;8.10;6.20;;;;;;;;;;4956128;28;20239;-62
2022/11/06 01:12:38;;;;;;;9.57;5.40;;;;;;;;;;4981003;28;20239;-62
2022/11/06 01:15:06;;;;;;;7.40;6.00;;;;;;;;;;4959756;28;20207;-63
2022/11/06 01:17:34;;;;;;;7.60;6.00;;;;;;;;;;4957218;28;20206;-62
2022/11/06 01:20:01;;;;;;;8.30;6.50;;;;;;;;;;4962378;28;20227;-63
2022/11/06 01:22:29;;;;;;;8.10;6.13;;;;;;;;;;4965332;28;20211;-63
2022/11/06 01:24:56;;;;;;;8.87;6.70;;;;;;;;;;4959258;28;20223;-63
2022/11/06 01:27:23;;;;;;;6.87;6.00;;;;;;;;;;4966660;28;20674;-62
2022/11/06 01:29:52;;;;;;;8.90;5.77;;;;;;;;;;4961809;28;20368;-62
2022/11/06 01:32:20;;;;;;;9.80;6.87;;;;;;;;;;4967677;28;20323;-62
2022/11/06 01:34:49;;;;;;;8.33;6.60;;;;;;;;;;4961881;28;20227;-63
2022/11/06 01:37:16;;;;;;;10.00;7.33;;;;;;;;;;4983878;28;20290;-63
2022/11/06 01:39:43;;;;;;;11.30;7.37;;;;;;;;;;4981049;28;20223;-62
2022/11/06 01:42:11;;;;;;;14.27;9.57;;;;;;;;;;4976966;28;20207;-62
2022/11/06 01:44:42;;;;;;;10.23;7.43;;;;;;;;;;4998783;28;20877;-61
2022/11/06 01:47:19;;;;;;;8.07;6.67;;;;;;;;;;4963790;28;20291;-62
2022/11/06 01:49:47;;;;;;;10.13;7.60;;;;;;;;;;4963127;28;20227;-62
2022/11/06 01:52:14;;;;;;;10.27;8.03;;;;;;;;;;4956633;28;20235;-62
2022/11/06 01:54:43;;;;;;;10.87;7.40;;;;;;;;;;4956376;28;20208;-64
2022/11/06 01:57:11;;;;;;;12.43;7.53;;;;;;;;;;4980301;28;20207;-63
2022/11/06 01:59:42;;;;;;;10.13;7.43;;;;;;;;;;4955449;28;20236;-61
2022/11/06 02:02:09;;;;;;;10.60;7.67;;;;;;;;;;4963287;28;20210;-63
2022/11/06 02:04:40;;;;;;;12.20;8.40;;;;;;;;;;4961841;28;21561;-61
2022/11/06 02:07:07;;;;;;;12.67;8.90;;;;;;;;;;4963260;28;20682;-63
2022/11/06 02:09:35;;;;;;;13.93;9.03;;;;;;;;;;4979631;28;20354;-64
2022/11/06 02:12:05;;;;;;;11.93;8.23;;;;;;;;;;4961535;28;23271;-62
2022/11/06 02:14:39;;;;;;;13.10;8.70;;;;;;;;;;4961126;28;20204;-62
2022/11/06 02:17:06;;;;;;;11.83;7.60;;;;;;;;;;4963138;28;20207;-63
2022/11/06 02:19:52;;;;;;;10.63;8.00;;;;;;;;;;4965575;28;20270;-61
2022/11/06 02:22:26;;;;;;;11.93;7.63;;;;;;;;;;4968451;28;20210;-63
2022/11/06 02:25:14;;;;;;;11.47;8.10;;;;;;;;;;4964587;28;20304;-63
2022/11/06 02:27:45;;;;;;;31.57;8.87;;;;;;;;;;4941572;28;20294;-63
2022/11/06 02:30:14;;;;;;;18.57;10.17;;;;;;;;;;4958288;28;20227;-62
2022/11/06 02:32:44;;;;;;;14.87;9.63;;;;;;;;;;4967945;28;20762;-62
2022/11/06 02:35:15;;;;;;;19.33;9.97;;;;;;;;;;4967906;28;20669;-63
2022/11/06 02:37:44;;;;;;;28.10;9.93;;;;;;;;;;4977642;28;20581;-63
2022/11/06 02:40:12;;;;;;;22.87;10.23;;;;;;;;;;4965954;28;20223;-63
2022/11/06 02:42:41;;;;;;;13.87;9.63;;;;;;;;;;4958345;28;20294;-63
2022/11/06 02:45:11;;;;;;;14.47;9.53;;;;;;;;;;4964157;28;20343;-62
2022/11/06 02:47:41;;;;;;;34.17;9.60;;;;;;;;;;4976462;28;20209;-64
2022/11/06 02:50:10;;;;;;;54.17;10.50;;;;;;;;;;4982216;28;20318;-63
2022/11/06 02:52:41;;;;;;;11.30;8.20;;;;;;;;;;4977537;28;20239;-63
2022/11/06 02:55:15;;;;;;;13.27;8.73;;;;;;;;;;4960324;28;21434;-62
2022/11/06 02:58:03;;;;;;;20.47;10.93;;;;;;;;;;4952924;28;20216;-63
2022/11/06 03:00:31;;;;;;;28.23;14.10;;;;;;;;;;4973484;28;20228;-61
2022/11/06 03:03:00;;;;;;;28.00;14.00;;;;;;;;;;4967107;28;20215;-63
2022/11/06 03:05:32;;;;;;;25.43;13.97;;;;;;;;;;4955506;28;20219;-64
2022/11/06 03:08:09;;;;;;;25.57;14.63;;;;;;;;;;4973521;28;20196;-63
2022/11/06 03:10:53;;;;;;;24.33;13.93;;;;;;;;;;4960894;28;20250;-64
2022/11/06 03:13:24;;;;;;;30.40;14.80;;;;;;;;;;4948514;28;20231;-62
2022/11/06 03:15:55;;;;;;;25.80;14.30;;;;;;;;;;4953703;28;20214;-63
2022/11/06 03:18:33;;;;;;;29.90;15.20;;;;;;;;;;4951385;28;20785;-62
2022/11/06 03:21:00;;;;;;;28.57;14.83;;;;;;;;;;4942600;28;20230;-61
2022/11/06 03:23:30;;;;;;;27.37;15.70;;;;;;;;;;4950645;28;20211;-61
2022/11/06 03:26:04;;;;;;;22.17;12.53;;;;;;;;;;4957353;28;20375;-62
2022/11/06 03:28:33;;;;;;;22.67;12.47;;;;;;;;;;4958037;28;20274;-61
2022/11/06 03:31:07;;;;;;;34.80;10.40;;;;;;;;;;4962277;28;20298;-60
2022/11/06 03:33:40;;;;;;;44.40;10.13;;;;;;;;;;4964515;28;20223;-61
2022/11/06 03:36:14;;;;;;;17.53;9.63;;;;;;;;;;4964561;28;20510;-61
2022/11/06 03:38:44;;;;;;;22.20;11.23;;;;;;;;;;4961930;28;20217;-62
2022/11/06 03:41:18;;;;;;;16.63;10.57;;;;;;;;;;4962006;28;20232;-62
2022/11/06 03:43:48;;;;;;;26.23;8.93;;;;;;;;;;4961694;28;20223;-62
2022/11/06 03:46:18;;;;;;;19.10;8.87;;;;;;;;;;4955633;28;20682;-62
2022/11/06 03:48:50;;;;;;;20.17;7.43;;;;;;;;;;4969221;28;20203;-62
2022/11/06 03:51:20;;;;;;;14.97;8.27;;;;;;;;;;4963107;28;20249;-61
2022/11/06 03:53:52;;;;;;;11.27;8.00;;;;;;;;;;4966906;28;20238;-62
2022/11/06 03:56:26;;;;;;;10.67;7.97;;;;;;;;;;4967150;28;20318;-64
2022/11/06 03:58:54;;;;;;;10.73;7.47;;;;;;;;;;4962087;28;20214;-64
2022/11/06 04:01:25;;;;;;;17.63;7.20;;;;;;;;;;4983284;28;20230;-62
2022/11/06 04:03:55;;;;;;;16.77;6.87;;;;;;;;;;4966738;28;20220;-62
2022/11/06 04:06:30;;;;;;;11.63;7.40;;;;;;;;;;4970254;28;20207;-62
2022/11/06 04:14:33;;;;;;;10.77;6.20;;;;;;;;;;4981324;28;20215;-64
2022/11/06 04:17:03;;;;;;;11.07;7.60;;;;;;;;;;4979144;28;20397;-62
2022/11/06 04:19:30;;;;;;;10.47;7.47;;;;;;;;;;4979782;28;20299;-60
2022/11/06 04:22:01;;;;;;;12.47;7.87;;;;;;;;;;4964765;28;22101;-61
2022/11/06 04:27:33;;;;;;;7.33;5.43;;;;;;;;;;4972577;28;20298;-62
2022/11/06 04:30:08;;;;;;;11.17;5.17;;;;;;;;;;4967382;28;20224;-63
2022/11/06 04:32:42;;;;;;;13.63;5.70;;;;;;;;;;4959341;28;20234;-63
2022/11/06 04:35:28;;;;;;;8.60;5.37;;;;;;;;;;4966438;28;20211;-62
2022/11/06 04:38:06;;;;;;;11.13;5.33;;;;;;;;;;4958165;28;20208;-63
2022/11/06 04:40:47;;;;;;;28.17;5.50;;;;;;;;;;4963087;28;20243;-62
2022/11/06 04:43:21;;;;;;;10.43;4.83;;;;;;;;;;4963306;28;20219;-60
2022/11/06 04:45:50;;;;;;;10.83;5.07;;;;;;;;;;4981235;28;20306;-61
2022/11/06 04:48:18;;;;;;;9.90;5.10;;;;;;;;;;4979513;28;20251;-61
2022/11/06 04:50:47;;;;;;;13.87;6.17;;;;;;;;;;4999001;28;20238;-63
2022/11/06 04:53:17;;;;;;;10.30;6.93;;;;;;;;;;4977573;28;20330;-63
2022/11/06 04:55:50;;;;;;;12.97;5.97;;;;;;;;;;4959679;28;20530;-63
2022/11/06 04:58:19;;;;;;;13.60;6.37;;;;;;;;;;4983389;28;20218;-63
2022/11/06 05:00:48;;;;;;;19.83;5.80;;;;;;;;;;4956503;28;20313;-63
2022/11/06 05:03:16;;;;;;;31.70;6.03;;;;;;;;;;4960848;28;20445;-60
2022/11/06 05:05:43;;;;;;;22.70;6.07;;;;;;;;;;4959369;28;21335;-62
2022/11/06 05:08:14;;;;;;;32.10;6.57;;;;;;;;;;4962627;28;20215;-63
2022/11/06 05:10:43;;;;;;;25.83;7.50;;;;;;;;;;4957562;28;20238;-63
2022/11/06 05:13:10;;;;;;;12.80;7.00;;;;;;;;;;4974709;28;20223;-62
2022/11/06 05:15:38;;;;;;;19.60;7.20;;;;;;;;;;4963331;28;20210;-62
2022/11/06 05:18:06;;;;;;;63.63;9.00;;;;;;;;;;4960520;28;20605;-63
2022/11/06 05:20:33;;;;;;;51.63;7.47;;;;;;;;;;4964039;28;20319;-61
2022/11/06 05:23:01;;;;;;;18.57;7.27;;;;;;;;;;4959717;28;21360;-62
2022/11/06 05:25:30;;;;;;;17.40;7.50;;;;;;;;;;4980548;28;20508;-61
2022/11/06 05:27:58;;;;;;;11.20;6.77;;;;;;;;;;4963332;28;20214;-64
2022/11/06 05:30:27;;;;;;;10.87;7.30;;;;;;;;;;4973742;28;20286;-61
2022/11/06 05:32:55;;;;;;;18.87;6.87;;;;;;;;;;4962548;28;20227;-62
2022/11/06 05:35:23;;;;;;;29.53;7.53;;;;;;;;;;4981578;28;20222;-63
2022/11/06 05:37:50;;;;;;;26.37;6.97;;;;;;;;;;4985888;28;20290;-60
2022/11/06 05:40:18;;;;;;;27.93;7.17;;;;;;;;;;4987703;28;20230;-62
2022/11/06 05:42:47;;;;;;;14.63;6.23;;;;;;;;;;4982111;28;20245;-62
2022/11/06 05:45:14;;;;;;;14.00;6.50;;;;;;;;;;4974791;28;20227;-60
2022/11/06 05:47:42;;;;;;;25.73;8.00;;;;;;;;;;4963842;28;20208;-62
2022/11/06 05:50:10;;;;;;;17.67;9.10;;;;;;;;;;4967167;28;20255;-63
2022/11/06 05:52:37;;;;;;;11.47;7.73;;;;;;;;;;4967569;28;20326;-63
2022/11/06 05:55:05;;;;;;;28.33;9.63;;;;;;;;;;4986744;28;20298;-63
2022/11/06 05:57:40;;;;;;;23.17;6.90;;;;;;;;;;4963441;28;20389;-64
2022/11/06 06:00:08;;;;;;;16.73;6.33;;;;;;;;;;4972301;28;20310;-62
2022/11/06 06:02:36;;;;;;;39.57;7.60;;;;;;;;;;4962399;28;20203;-60
2022/11/06 06:05:04;;;;;;;20.63;6.20;;;;;;;;;;4966347;28;20207;-62
2022/11/06 06:07:32;;;;;;;21.30;5.97;;;;;;;;;;4959595;28;20212;-61
2022/11/06 06:09:59;;;;;;;44.07;8.10;;;;;;;;;;4963386;28;21475;-62
2022/11/06 06:12:27;;;;;;;8.90;5.93;;;;;;;;;;4964839;28;20219;-61
2022/11/06 06:14:54;;;;;;;21.77;5.77;;;;;;;;;;4957515;28;20228;-62
2022/11/06 06:17:22;;;;;;;8.13;5.30;;;;;;;;;;4968576;28;20331;-61
2022/11/06 06:19:49;;;;;;;10.17;5.90;;;;;;;;;;4975627;28;20342;-62
2022/11/06 06:22:17;;;;;;;10.33;5.60;;;;;;;;;;4967552;28;20470;-61
2022/11/06 06:24:44;;;;;;;13.87;6.00;;;;;;;;;;4962998;28;20237;-62
2022/11/06 06:27:12;;;;;;;15.57;5.27;;;;;;;;;;4961922;28;20239;-63
2022/11/06 06:29:39;;;;;;;18.03;5.30;;;;;;;;;;4961661;28;20232;-63
2022/11/06 06:32:06;;;;;;;14.03;4.70;;;;;;;;;;4960570;28;20306;-62
2022/11/06 06:34:34;;;;;;;10.10;5.57;;;;;;;;;;4959379;28;20318;-61
2022/11/06 06:37:01;;;;;;;11.67;6.80;;;;;;;;;;4968226;28;20227;-62
2022/11/06 06:39:29;;;;;;;16.03;7.73;;;;;;;;;;4963061;28;20297;-61
2022/11/06 06:41:57;;;;;;;15.17;10.30;;;;;;;;;;4964553;28;20206;-60
2022/11/06 06:44:25;;;;;;;14.30;11.40;;;;;;;;;;4978337;28;20208;-63
2022/11/06 06:46:52;;;;;;;11.83;8.93;;;;;;;;;;4970622;28;20239;-62
2022/11/06 06:49:20;;;;;;;8.07;4.63;;;;;;;;;;4963028;28;20226;-62
2022/11/06 06:51:48;;;;;;;7.60;4.83;;;;;;;;;;4963664;28;20200;-63
2022/11/06 06:54:15;;;;;;;7.80;4.10;;;;;;;;;;4961528;28;20255;-62
2022/11/06 06:56:42;;;;;;;19.33;4.53;;;;;;;;;;4963209;28;20578;-62
2022/11/06 06:59:11;;;;;;;21.40;10.60;;;;;;;;;;4965428;28;20231;-63
2022/11/06 07:01:38;;;;;;;18.47;9.47;;;;;;;;;;4944978;28;20230;-63
2022/11/06 07:04:06;;;;;;;14.47;9.57;;;;;;;;;;4980173;28;20227;-63
2022/11/06 07:06:33;;;;;;;16.73;10.37;;;;;;;;;;4958979;28;20208;-64
2022/11/06 07:09:00;;;;;;;13.63;9.47;;;;;;;;;;4976457;28;20222;-60
2022/11/06 07:11:28;;;;;;;13.77;9.00;;;;;;;;;;4955310;28;21515;-63
2022/11/06 07:13:55;;;;;;;15.23;7.97;;;;;;;;;;4962038;28;20290;-63
2022/11/06 07:16:24;;;;;;;22.17;8.47;;;;;;;;;;4959231;28;20212;-61
2022/11/06 07:18:51;;;;;;;55.90;25.47;;;;;;;;;;4969252;28;20224;-62
2022/11/06 07:21:18;;;;;;;88.73;33.93;;;;;;;;;;4964396;28;20366;-62
2022/11/06 07:23:46;;;;;;;67.40;28.87;;;;;;;;;;4959211;28;20259;-61
2022/11/06 07:26:16;;;;;;;64.70;28.80;;;;;;;;;;4958552;28;20203;-64
2022/11/06 07:28:43;;;;;;;99.07;39.93;;;;;;;;;;4967434;28;20246;-62
2022/11/06 07:31:14;;;;;;;59.47;24.17;;;;;;;;;;4963792;28;20354;-62
2022/11/06 07:33:41;;;;;;;42.40;20.90;;;;;;;;;;4968336;28;20235;-62
2022/11/06 07:36:10;;;;;;;41.67;18.60;;;;;;;;;;4964235;28;20350;-61
2022/11/06 07:38:38;;;;;;;28.80;14.60;;;;;;;;;;4964421;28;20373;-60
2022/11/06 07:41:07;;;;;;;26.83;14.17;;;;;;;;;;4963509;28;20305;-62
2022/11/06 07:43:35;;;;;;;23.70;12.03;;;;;;;;;;4976766;28;20227;-61
2022/11/06 07:46:03;;;;;;;25.43;12.20;;;;;;;;;;4963514;28;21566;-63
2022/11/06 07:48:31;;;;;;;18.93;8.70;;;;;;;;;;4962215;28;20254;-62
2022/11/06 07:51:01;;;;;;;11.50;6.73;;;;;;;;;;4970908;28;20327;-63
2022/11/06 07:53:29;;;;;;;15.67;7.07;;;;;;;;;;4960183;28;20318;-62
2022/11/06 07:55:56;;;;;;;11.43;6.90;;;;;;;;;;4966357;28;20332;-62
2022/11/06 07:58:24;;;;;;;22.60;8.80;;;;;;;;;;4960186;28;20212;-63
2022/11/06 08:00:52;;;;;;;15.83;9.90;;;;;;;;;;4965168;28;20870;-61
2022/11/06 08:03:20;;;;;;;28.10;12.60;;;;;;;;;;4960956;28;20228;-62
2022/11/06 08:05:48;;;;;;;36.43;14.23;;;;;;;;;;4961999;28;21119;-62
2022/11/06 08:08:15;;;;;;;23.97;12.03;;;;;;;;;;4959298;28;20219;-60
2022/11/06 08:10:43;;;;;;;23.40;12.67;;;;;;;;;;4957552;28;20240;-62
2022/11/06 08:13:11;;;;;;;22.67;12.37;;;;;;;;;;4958287;28;20299;-61
2022/11/06 08:15:39;;;;;;;23.23;12.30;;;;;;;;;;4961417;28;20728;-62
2022/11/06 08:18:07;;;;;;;21.63;12.13;;;;;;;;;;4957320;28;20212;-62
2022/11/06 08:20:38;;;;;;;19.93;11.70;;;;;;;;;;4965389;28;20254;-63
2022/11/06 08:23:07;;;;;;;17.97;11.17;;;;;;;;;;4957472;28;20286;-63
2022/11/06 08:25:34;;;;;;;17.47;11.17;;;;;;;;;;4977050;28;20214;-63
2022/11/06 08:28:02;;;;;;;15.83;10.83;;;;;;;;;;4957432;28;20258;-63
2022/11/06 08:30:30;;;;;;;17.20;11.90;;;;;;;;;;4961664;28;20238;-62
2022/11/06 08:33:02;;;;;;;14.90;9.97;;;;;;;;;;4955419;28;20204;-61
2022/11/06 08:35:30;;;;;;;11.87;8.67;;;;;;;;;;4957129;28;20269;-61
2022/11/06 08:37:58;;;;;;;10.97;8.40;;;;;;;;;;4957018;28;20777;-62
2022/11/06 08:40:25;;;;;;;11.80;7.40;;;;;;;;;;4958365;28;20228;-62
2022/11/06 08:43:04;;;;;;;10.03;7.87;;;;;;;;;;4968102;28;20206;-61
2022/11/06 08:45:32;;;;;;;10.13;7.00;;;;;;;;;;4963461;28;20225;-60
2022/11/06 08:48:03;;;;;;;9.30;7.10;;;;;;;;;;4990974;28;20243;-63
2022/11/06 08:50:31;;;;;;;10.27;7.40;;;;;;;;;;4973937;28;20318;-62
2022/11/06 08:53:02;;;;;;;9.70;6.73;;;;;;;;;;4982221;28;20208;-62
2022/11/06 08:55:30;;;;;;;12.77;8.23;;;;;;;;;;4967738;28;20297;-63
2022/11/06 08:57:58;;;;;;;10.13;7.17;;;;;;;;;;4965919;28;20215;-63
2022/11/06 09:00:25;;;;;;;9.27;6.80;;;;;;;;;;4961519;28;21087;-61
2022/11/06 09:03:00;;;;;;;6.63;5.07;;;;;;;;;;4946853;28;20753;-62
2022/11/06 09:05:29;;;;;;;7.07;5.87;;;;;;;;;;4950324;28;20705;-61
2022/11/06 09:07:57;;;;;;;8.23;6.23;;;;;;;;;;4964971;28;20225;-62
2022/11/06 09:10:25;;;;;;;5.43;4.90;;;;;;;;;;4976736;28;20803;-62
2022/11/06 09:12:52;;;;;;;6.47;5.10;;;;;;;;;;4977102;28;20267;-62
2022/11/06 09:15:20;;;;;;;5.47;4.80;;;;;;;;;;4970390;28;20231;-62
2022/11/06 09:17:48;;;;;;;4.87;4.37;;;;;;;;;;4979336;28;20225;-61
2022/11/06 09:20:17;;;;;;;5.13;4.37;;;;;;;;;;4978696;28;20299;-62
2022/11/06 09:22:45;;;;;;;6.10;5.43;;;;;;;;;;4978079;28;20282;-63
2022/11/06 09:25:13;;;;;;;5.23;4.70;;;;;;;;;;4970846;28;20218;-63
2022/11/06 09:27:44;;;;;;;4.93;4.23;;;;;;;;;;4972360;28;20219;-62
2022/11/06 09:30:12;;;;;;;4.07;3.63;;;;;;;;;;4972578;28;20293;-63
2022/11/06 09:32:45;;;;;;;4.80;4.30;;;;;;;;;;4982321;28;20674;-60
2022/11/06 09:35:12;;;;;;;5.27;4.77;;;;;;;;;;4973533;28;20274;-62
2022/11/06 09:37:40;;;;;;;5.00;4.40;;;;;;;;;;4971318;28;20814;-63
2022/11/06 09:40:11;;;;;;;7.47;5.30;;;;;;;;;;4980576;28;20235;-62
2022/11/06 09:42:48;;;;;;;4.17;3.77;;;;;;;;;;4983611;28;20650;-62
2022/11/06 09:45:21;;;;;;;5.27;4.47;;;;;;;;;;4982708;28;20249;-62
2022/11/06 09:47:53;;;;;;;6.93;5.60;;;;;;;;;;4981776;28;20207;-63
2022/11/06 09:50:23;;;;;;;6.13;5.43;;;;;;;;;;4986323;28;20585;-62
2022/11/06 09:52:55;;;;;;;6.13;5.50;;;;;;;;;;4984201;28;20286;-61
2022/11/06 09:55:33;;;;;;;3.90;3.60;;;;;;;;;;4985687;28;20226;-62
2022/11/06 09:58:03;;;;;;;4.13;3.73;;;;;;;;;;4980993;28;20215;-62
2022/11/06 10:00:32;;;;;;;4.00;3.50;;;;;;;;;;4977609;28;20314;-62
2022/11/06 10:03:05;;;;;;;3.67;3.37;;;;;;;;;;4995216;28;20308;-61
2022/11/06 10:05:36;;;;;;;4.40;3.77;;;;;;;;;;4985637;28;20282;-62
2022/11/06 10:08:16;;;;;;;4.57;4.10;;;;;;;;;;4983339;28;20674;-62
2022/11/06 10:10:56;;;;;;;4.33;3.93;;;;;;;;;;4974114;28;20271;-63
2022/11/06 10:13:38;;;;;;;3.80;3.40;;;;;;;;;;4978651;28;20305;-62
2022/11/06 10:16:05;;;;;;;4.63;4.10;;;;;;;;;;4979533;28;20329;-62
2022/11/06 10:18:46;;;;;;;3.60;3.30;;;;;;;;;;4981006;28;20299;-62
2022/11/06 10:21:19;;;;;;;3.73;3.27;;;;;;;;;;5001743;28;20704;-63
2022/11/06 10:23:46;;;;;;;3.63;3.33;;;;;;;;;;4977886;28;20227;-61
2022/11/06 10:26:14;;;;;;;3.70;3.40;;;;;;;;;;4979080;28;20347;-63
2022/11/06 10:29:01;;;;;;;3.50;3.20;;;;;;;;;;4984194;28;20216;-62
2022/11/06 10:31:37;;;;;;;3.50;3.20;;;;;;;;;;4973267;28;20283;-62
2022/11/06 10:34:10;;;;;;;3.40;3.10;;;;;;;;;;4965404;28;20241;-64
2022/11/06 10:36:47;;;;;;;3.50;3.20;;;;;;;;;;4972836;28;20694;-62
2022/11/06 10:39:25;;;;;;;4.70;4.30;;;;;;;;;;4989933;28;20204;-61
2022/11/06 10:41:56;;;;;;;4.00;3.70;;;;;;;;;;4953348;28;20294;-62
2022/11/06 10:44:27;;;;;;;3.20;3.00;;;;;;;;;;4994057;28;20295;-63
2022/11/06 10:47:04;;;;;;;3.87;3.57;;;;;;;;;;4982704;28;20906;-62
2022/11/06 10:49:38;;;;;;;5.03;4.40;;;;;;;;;;4983678;28;20235;-63
2022/11/06 10:52:12;;;;;;;5.83;5.23;;;;;;;;;;4984258;28;20235;-63
2022/11/06 10:54:42;;;;;;;6.00;5.40;;;;;;;;;;4976812;28;20644;-63
2022/11/06 10:57:13;;;;;;;3.90;3.60;;;;;;;;;;4988626;28;20234;-64
2022/11/06 10:59:41;;;;;;;3.87;3.57;;;;;;;;;;5026507;28;20216;-63
2022/11/06 11:02:19;;;;;;;4.13;3.77;;;;;;;;;;4998301;28;20295;-62
2022/11/06 11:04:47;;;;;;;3.43;3.13;;;;;;;;;;4989161;28;20218;-62
2022/11/06 11:07:15;;;;;;;3.40;3.10;;;;;;;;;;5003157;28;20230;-61
2022/11/06 11:09:50;;;;;;;2.97;2.77;;;;;;;;;;4981330;28;20227;-61
2022/11/06 11:12:28;;;;;;;5.30;3.50;;;;;;;;;;4979768;28;20211;-63
2022/11/06 11:15:05;;;;;;;3.93;3.53;;;;;;;;;;4976584;28;20584;-61
2022/11/06 11:17:32;;;;;;;3.40;3.10;;;;;;;;;;4986665;28;20810;-62
2022/11/06 11:20:03;;;;;;;3.23;2.93;;;;;;;;;;4978532;28;20781;-63
2022/11/06 11:22:31;;;;;;;4.17;3.43;;;;;;;;;;4978338;28;20426;-63
2022/11/06 11:25:00;;;;;;;3.30;3.00;;;;;;;;;;4981578;28;20226;-60
2022/11/06 11:27:28;;;;;;;2.90;2.70;;;;;;;;;;4976582;28;20208;-61
2022/11/06 11:29:56;;;;;;;3.60;3.30;;;;;;;;;;4979189;28;20491;-61
2022/11/06 11:32:24;;;;;;;2.90;2.70;;;;;;;;;;4994951;28;20275;-63
2022/11/06 11:34:52;;;;;;;5.30;2.97;;;;;;;;;;4968517;28;20244;-63
2022/11/06 11:37:30;;;;;;;2.70;2.50;;;;;;;;;;4963030;28;20338;-63
2022/11/06 11:40:16;;;;;;;3.10;2.77;;;;;;;;;;4964827;28;20701;-63
2022/11/06 11:42:44;;;;;;;4.43;3.57;;;;;;;;;;4978747;28;20203;-61
2022/11/06 11:45:15;;;;;;;3.50;3.20;;;;;;;;;;4969091;28;20865;-64
2022/11/06 11:47:45;;;;;;;3.37;2.87;;;;;;;;;;4973788;28;20346;-60
2022/11/06 11:50:33;;;;;;;3.13;2.83;;;;;;;;;;4979428;28;20267;-63
2022/11/06 11:53:19;;;;;;;2.67;2.47;;;;;;;;;;4967200;28;20218;-61
2022/11/06 11:55:51;;;;;;;3.97;3.53;;;;;;;;;;4975350;28;20219;-64
2022/11/06 11:58:19;;;;;;;3.47;3.00;;;;;;;;;;4969168;28;20286;-63
2022/11/06 12:00:57;;;;;;;2.50;2.30;;;;;;;;;;4970387;28;21260;-63
2022/11/06 12:03:28;;;;;;;4.10;2.90;;;;;;;;;;4990104;28;20290;-62
2022/11/06 12:06:04;;;;;;;4.80;3.40;;;;;;;;;;4978511;28;20212;-63
2022/11/06 12:08:32;;;;;;;2.27;2.07;;;;;;;;;;4972590;28;20303;-63
2022/11/06 12:11:03;;;;;;;2.20;2.00;;;;;;;;;;4961734;28;20237;-63
2022/11/06 12:13:30;;;;;;;4.27;3.83;;;;;;;;;;4970581;28;20626;-63
2022/11/06 12:16:09;;;;;;;2.60;2.40;;;;;;;;;;4974087;28;20322;-63
2022/11/06 12:18:45;;;;;;;2.50;2.30;;;;;;;;;;4962175;28;20206;-63
2022/11/06 12:21:28;;;;;;;2.45;2.25;;;;;;;;;;4984097;28;20318;-63
2022/11/06 12:24:03;;;;;;;2.55;2.35;;;;;;;;;;4984004;28;20277;-63
2022/11/06 12:26:39;;;;;;;2.23;2.03;;;;;;;;;;4966238;28;20314;-63
2022/11/06 12:29:11;;;;;;;2.40;2.00;;;;;;;;;;4965010;28;20211;-63
2022/11/06 12:31:41;;;;;;;2.70;2.50;;;;;;;;;;4968800;28;20303;-63
2022/11/06 12:34:14;;;;;;;3.57;3.27;;;;;;;;;;4964421;28;21087;-63
2022/11/06 12:36:49;;;;;;;3.20;2.90;;;;;;;;;;4963547;28;20825;-62
2022/11/06 12:39:20;;;;;;;3.87;3.57;;;;;;;;;;4951960;28;20224;-63
2022/11/06 12:41:50;;;;;;;3.87;3.57;;;;;;;;;;4950247;28;20208;-61
2022/11/06 12:44:18;;;;;;;4.10;3.70;;;;;;;;;;4957702;28;20382;-62
2022/11/06 12:46:54;;;;;;;4.43;3.50;;;;;;;;;;4978697;28;20235;-63
2022/11/06 12:49:22;;;;;;;4.53;4.03;;;;;;;;;;4949543;28;20219;-62
2022/11/06 12:52:09;;;;;;;6.17;4.53;;;;;;;;;;4952457;28;20336;-61
2022/11/06 12:54:52;;;;;;;5.13;4.60;;;;;;;;;;4969982;28;20242;-63
2022/11/06 12:57:19;;;;;;;5.67;4.40;;;;;;;;;;4956669;28;20298;-62
2022/11/06 12:59:56;;;;;;;4.83;4.30;;;;;;;;;;4952403;28;20601;-64
2022/11/06 13:02:23;;;;;;;6.00;4.57;;;;;;;;;;4945773;28;20207;-63
2022/11/06 13:05:15;;;;;;;6.37;5.00;;;;;;;;;;4938948;28;20749;-64
2022/11/06 13:08:01;;;;;;;7.23;5.93;;;;;;;;;;4956658;28;20250;-64
2022/11/06 13:10:55;;;;;;;7.53;5.80;;;;;;;;;;4941566;28;20238;-63
2022/11/06 13:13:27;;;;;;;6.43;5.73;;;;;;;;;;4951484;28;20704;-62
2022/11/06 13:16:13;;;;;;;6.27;5.60;;;;;;;;;;4970156;28;22213;-63
2022/11/06 13:18:43;;;;;;;7.90;6.30;;;;;;;;;;4955282;28;20215;-61
2022/11/06 13:21:25;;;;;;;9.00;7.10;;;;;;;;;;4971161;28;20223;-60
2022/11/06 13:24:05;;;;;;;10.67;8.67;;;;;;;;;;4979661;28;20211;-63
2022/11/06 13:26:35;;;;;;;11.37;8.23;;;;;;;;;;4958306;28;20420;-63
2022/11/06 13:29:04;;;;;;;12.03;8.70;;;;;;;;;;4950006;28;20208;-64
2022/11/06 13:31:35;;;;;;;11.93;8.60;;;;;;;;;;4933265;28;20321;-63
2022/11/06 13:34:02;;;;;;;8.60;7.80;;;;;;;;;;4940312;28;20589;-64
2022/11/06 13:36:31;;;;;;;11.33;8.00;;;;;;;;;;4959568;28;20314;-62
2022/11/06 13:39:15;;;;;;;9.07;7.57;;;;;;;;;;4970330;28;20344;-62
2022/11/06 13:41:42;;;;;;;14.97;10.47;;;;;;;;;;4960056;28;20246;-63
2022/11/06 13:44:15;;;;;;;14.37;10.27;;;;;;;;;;4951394;28;20207;-63
2022/11/06 13:47:07;;;;;;;10.87;9.07;;;;;;;;;;4945433;28;20712;-63
2022/11/06 13:49:55;;;;;;;11.23;9.27;;;;;;;;;;4989219;28;20207;-63
2022/11/06 13:52:29;;;;;;;13.17;9.43;;;;;;;;;;4982500;28;20208;-61
2022/11/06 13:55:12;;;;;;;13.50;10.60;;;;;;;;;;4958064;28;20619;-61
2022/11/06 13:57:42;;;;;;;11.37;10.07;;;;;;;;;;4962867;28;20199;-62
2022/11/06 14:00:16;;;;;;;12.47;9.93;;;;;;;;;;4955096;28;20393;-63
2022/11/06 14:02:53;;;;;;;11.77;10.20;;;;;;;;;;4967983;28;20204;-63
2022/11/06 14:05:39;;;;;;;14.10;11.47;;;;;;;;;;4948527;28;20211;-64
2022/11/06 14:08:11;;;;;;;13.90;11.20;;;;;;;;;;4940216;28;20216;-62
2022/11/06 14:10:47;;;;;;;15.00;11.83;;;;;;;;;;4939128;28;20236;-61
2022/11/06 14:13:15;;;;;;;14.17;10.93;;;;;;;;;;4942692;28;20225;-64
2022/11/06 14:15:43;;;;;;;15.23;12.27;;;;;;;;;;4969144;28;21124;-63
2022/11/06 14:18:20;;;;;;;15.07;11.93;;;;;;;;;;4955379;28;20817;-61
2022/11/06 14:20:48;;;;;;;13.50;10.67;;;;;;;;;;4971625;28;20318;-63
2022/11/06 14:23:28;;;;;;;13.47;10.40;;;;;;;;;;4960089;28;20215;-61
2022/11/06 14:25:56;;;;;;;13.40;10.90;;;;;;;;;;4979603;28;20219;-63
2022/11/06 14:28:31;;;;;;;12.03;10.03;;;;;;;;;;4953917;28;20831;-63
2022/11/06 14:31:00;;;;;;;12.47;10.23;;;;;;;;;;4953392;28;20261;-63
2022/11/06 14:33:50;;;;;;;12.90;10.43;;;;;;;;;;4956150;28;20225;-62
2022/11/06 14:36:24;;;;;;;11.97;9.53;;;;;;;;;;4955970;28;20245;-63
2022/11/06 14:38:52;;;;;;;13.17;10.13;;;;;;;;;;4962485;28;20423;-63
2022/11/06 14:41:49;;;;;;;13.00;10.80;;;;;;;;;;4941436;28;20322;-61
2022/11/06 14:44:40;;;;;;;16.33;12.90;;;;;;;;;;4927598;28;20227;-63
2022/11/06 14:47:20;;;;;;;12.90;10.50;;;;;;;;;;4947695;28;20336;-63
2022/11/06 14:49:55;;;;;;;11.67;9.57;;;;;;;;;;4927868;28;20227;-63
2022/11/06 14:52:24;;;;;;;15.60;12.17;;;;;;;;;;4955720;28;20663;-63
2022/11/06 14:54:57;;;;;;;19.07;14.47;;;;;;;;;;4949982;28;20220;-63
2022/11/06 14:57:50;;;;;;;28.33;19.07;;;;;;;;;;4941573;28;20635;-63
2022/11/06 15:00:30;;;;;;;21.90;14.00;;;;;;;;;;4958349;28;20261;-62
2022/11/06 15:02:59;;;;;;;24.40;16.20;;;;;;;;;;4958964;28;20214;-63
2022/11/06 15:05:26;;;;;;;13.13;10.00;;;;;;;;;;4984538;28;20208;-63
2022/11/06 15:07:56;;;;;;;11.13;9.57;;;;;;;;;;4989066;28;20299;-61